createdAt,value
2023-04-14T00:00:02.918Z,4.50
2023-04-14T00:02:43.725Z,4.40
2023-04-14T00:05:12.118Z,4.40
2023-04-14T00:07:40.746Z,4.40
2023-04-14T00:10:10.073Z,4.50
2023-04-14T00:12:38.544Z,4.70
2023-04-14T00:15:07.136Z,4.30
2023-04-14T00:17:37.163Z,4.60
2023-04-14T00:20:06.059Z,4.40
2023-04-14T00:22:34.600Z,4.20
2023-04-14T00:25:02.443Z,4.60
2023-04-14T00:27:31.362Z,4.60
2023-04-14T00:29:59.746Z,4.50
2023-04-14T00:32:27.920Z,4.60
2023-04-14T00:34:57.031Z,4.20
2023-04-14T00:37:25.079Z,4.10
2023-04-14T00:39:53.291Z,4.00
2023-04-14T00:42:21.223Z,4.20
2023-04-14T00:44:49.245Z,4.10
2023-04-14T00:47:17.520Z,3.80
2023-04-14T00:49:46.145Z,4.10
2023-04-14T00:52:14.000Z,3.70
2023-04-14T00:54:42.021Z,3.90
2023-04-14T00:57:10.147Z,3.90
2023-04-14T00:59:38.041Z,3.90
2023-04-14T01:02:08.652Z,3.90
2023-04-14T01:04:52.228Z,3.60
2023-04-14T01:07:23.092Z,3.90
2023-04-14T01:09:53.115Z,4.00
2023-04-14T01:12:55.082Z,4.10
2023-04-14T01:15:43.288Z,3.60
2023-04-14T01:18:44.842Z,3.90
2023-04-14T01:21:21.141Z,3.70
2023-04-14T01:24:06.108Z,3.80
2023-04-14T01:26:34.851Z,3.60
2023-04-14T01:29:06.208Z,3.90
2023-04-14T01:31:43.454Z,4.00
2023-04-14T01:34:21.476Z,3.70
2023-04-14T01:36:55.572Z,4.10
2023-04-14T01:39:33.296Z,4.00
2023-04-14T01:42:02.302Z,4.00
2023-04-14T01:44:30.754Z,3.70
2023-04-14T01:47:02.509Z,3.70
2023-04-14T01:49:32.347Z,4.00
2023-04-14T01:52:01.803Z,4.00
2023-04-14T01:54:31.752Z,4.00
2023-04-14T01:57:01.892Z,3.70
2023-04-14T01:59:31.188Z,4.00
2023-04-14T02:02:01.764Z,3.80
2023-04-14T02:04:30.113Z,4.10
2023-04-14T02:06:59.566Z,4.40
2023-04-14T02:09:28.306Z,4.30
2023-04-14T02:11:56.448Z,4.20
2023-04-14T02:14:24.616Z,4.30
2023-04-14T02:16:54.015Z,4.30
2023-04-14T02:19:22.088Z,4.10
2023-04-14T02:21:51.048Z,4.30
2023-04-14T02:24:19.372Z,4.30
2023-04-14T02:27:03.464Z,4.70
2023-04-14T02:29:32.282Z,4.30
2023-04-14T02:32:04.007Z,4.70
2023-04-14T02:34:55.790Z,4.80
2023-04-14T02:37:25.828Z,4.40
2023-04-14T02:39:56.985Z,4.70
2023-04-14T02:42:27.148Z,4.60
2023-04-14T02:45:07.093Z,4.90
2023-04-14T02:47:42.115Z,5.40
2023-04-14T02:50:12.258Z,4.70
2023-04-14T02:52:41.098Z,4.50
2023-04-14T02:55:11.333Z,4.70
2023-04-14T02:57:40.840Z,4.60
2023-04-14T03:00:10.820Z,4.60
2023-04-14T03:02:43.330Z,4.50
2023-04-14T03:05:11.378Z,4.30
2023-04-14T03:07:52.519Z,4.60
2023-04-14T03:10:22.000Z,4.50
2023-04-14T03:12:50.831Z,4.30
2023-04-14T03:15:19.166Z,5.00
2023-04-14T03:17:48.858Z,4.70
2023-04-14T03:20:20.246Z,4.80
2023-04-14T03:23:04.969Z,4.40
2023-04-14T03:25:37.989Z,4.80
2023-04-14T03:28:10.620Z,4.80
2023-04-14T03:30:41.533Z,4.60
2023-04-14T03:33:13.083Z,4.60
2023-04-14T03:35:41.252Z,4.40
2023-04-14T03:38:09.239Z,4.90
2023-04-14T03:40:40.206Z,4.90
2023-04-14T03:43:10.082Z,4.70
2023-04-14T03:45:40.161Z,4.80
2023-04-14T03:48:11.859Z,4.80
2023-04-14T03:50:46.495Z,5.20
2023-04-14T03:53:15.098Z,4.80
2023-04-14T03:55:44.007Z,5.10
2023-04-14T03:58:13.732Z,5.10
2023-04-14T04:00:42.142Z,5.00
2023-04-14T04:03:10.827Z,5.00
2023-04-14T04:05:42.131Z,5.20
2023-04-14T04:08:10.279Z,5.70
2023-04-14T04:10:38.305Z,5.40
2023-04-14T04:13:09.406Z,5.40
2023-04-14T04:15:41.150Z,5.50
2023-04-14T04:18:10.154Z,5.90
2023-04-14T04:20:39.668Z,5.90
2023-04-14T04:23:09.188Z,6.10
2023-04-14T04:25:37.763Z,5.70
2023-04-14T04:28:25.889Z,5.90
2023-04-14T04:30:54.268Z,5.80
2023-04-14T04:33:22.999Z,5.90
2023-04-14T04:35:51.555Z,6.10
2023-04-14T04:38:20.938Z,6.30
2023-04-14T04:40:48.925Z,6.10
2023-04-14T04:43:23.655Z,6.10
2023-04-14T04:46:13.078Z,6.10
2023-04-14T04:48:41.195Z,6.20
2023-04-14T04:51:10.164Z,6.20
2023-04-14T04:53:38.022Z,6.30
2023-04-14T04:56:08.457Z,6.60
2023-04-14T04:58:37.631Z,6.40
2023-04-14T05:01:11.237Z,6.30
2023-04-14T05:03:41.046Z,6.60
2023-04-14T05:06:08.872Z,6.80
2023-04-14T05:08:36.759Z,6.60
2023-04-14T05:11:06.089Z,6.30
2023-04-14T05:13:34.073Z,7.00
2023-04-14T05:16:06.556Z,6.20
2023-04-14T05:18:42.758Z,6.80
2023-04-14T05:21:14.460Z,6.50
2023-04-14T05:23:43.799Z,7.30
2023-04-14T05:28:47.750Z,7.20
2023-04-14T05:31:16.596Z,7.10
2023-04-14T05:33:44.717Z,7.50
2023-04-14T05:36:12.964Z,7.70
2023-04-14T05:38:41.813Z,7.50
2023-04-14T05:41:09.792Z,7.80
2023-04-14T05:43:37.671Z,7.70
2023-04-14T05:46:06.000Z,7.90
2023-04-14T05:48:37.729Z,8.70
2023-04-14T05:51:06.426Z,7.70
2023-04-14T05:53:34.576Z,7.70
2023-04-14T05:56:02.655Z,8.40
2023-04-14T05:58:31.072Z,8.60
2023-04-14T06:01:03.981Z,8.30
2023-04-14T06:03:34.108Z,8.70
2023-04-14T06:06:02.534Z,8.60
2023-04-14T06:08:31.011Z,8.60
2023-04-14T06:10:59.399Z,8.70
2023-04-14T06:15:59.518Z,8.60
2023-04-14T06:18:29.702Z,8.90
2023-04-14T06:20:57.830Z,8.20
2023-04-14T06:23:26.860Z,8.80
2023-04-14T06:25:55.952Z,9.00
2023-04-14T06:28:25.788Z,8.50
2023-04-14T06:30:53.954Z,8.60
2023-04-14T06:33:21.955Z,9.10
2023-04-14T06:35:51.391Z,8.90
2023-04-14T06:38:19.742Z,8.90
2023-04-14T06:40:47.657Z,8.60
2023-04-14T06:43:17.786Z,8.50
2023-04-14T06:45:46.352Z,9.00
2023-04-14T06:48:15.246Z,8.40
2023-04-14T06:50:53.626Z,8.70
2023-04-14T06:53:22.703Z,9.10
2023-04-14T06:56:09.001Z,8.20
2023-04-14T06:58:40.462Z,8.60
2023-04-14T07:01:08.872Z,8.40
2023-04-14T07:03:38.399Z,8.50
2023-04-14T07:06:12.736Z,9.00
2023-04-14T07:08:42.154Z,8.90
2023-04-14T07:11:11.132Z,8.70
2023-04-14T07:13:39.654Z,8.60
2023-04-14T07:16:10.017Z,8.70
2023-04-14T07:18:38.940Z,8.20
2023-04-14T07:21:07.124Z,8.50
2023-04-14T07:23:40.617Z,8.50
2023-04-14T07:26:08.632Z,8.70
2023-04-14T07:28:37.258Z,8.70
2023-04-14T07:33:39.091Z,8.60
2023-04-14T07:36:10.113Z,8.80
2023-04-14T07:38:38.017Z,8.70
2023-04-14T07:41:07.666Z,8.80
2023-04-14T07:43:36.040Z,8.80
2023-04-14T07:46:05.639Z,9.10
2023-04-14T07:48:34.856Z,8.60
2023-04-14T07:51:11.482Z,8.50
2023-04-14T07:53:42.497Z,8.50
2023-04-14T07:56:11.461Z,8.50
2023-04-14T07:58:40.287Z,8.20
2023-04-14T08:01:08.359Z,7.90
2023-04-14T08:03:37.909Z,8.80
2023-04-14T08:06:07.764Z,8.50
2023-04-14T08:08:36.833Z,8.50
2023-04-14T08:11:04.929Z,8.30
2023-04-14T08:13:32.852Z,8.30
2023-04-14T08:16:03.146Z,8.60
2023-04-14T08:18:32.524Z,8.70
2023-04-14T08:21:00.395Z,8.40
2023-04-14T08:23:28.286Z,8.60
2023-04-14T08:25:56.149Z,9.20
2023-04-14T08:28:24.732Z,9.20
2023-04-14T08:30:54.453Z,8.90
2023-04-14T08:33:23.459Z,9.10
2023-04-14T08:35:59.418Z,9.10
2023-04-14T08:38:29.716Z,8.80
2023-04-14T08:40:57.851Z,9.30
2023-04-14T08:43:25.828Z,9.00
2023-04-14T08:45:55.956Z,9.20
2023-04-14T08:48:27.567Z,8.80
2023-04-14T08:50:59.544Z,9.10
2023-04-14T08:53:35.121Z,9.20
2023-04-14T08:56:04.355Z,9.10
2023-04-14T08:58:32.407Z,9.50
2023-04-14T09:01:01.776Z,9.20
2023-04-14T09:03:31.684Z,9.40
2023-04-14T09:05:59.838Z,9.80
2023-04-14T09:08:36.405Z,9.50
2023-04-14T09:11:05.414Z,9.40
2023-04-14T09:13:33.758Z,9.30
2023-04-14T09:16:01.954Z,9.50
2023-04-14T09:18:34.352Z,9.30
2023-04-14T09:21:31.186Z,9.40
2023-04-14T09:23:52.377Z,9.20
2023-04-14T09:26:20.477Z,9.50
2023-04-14T09:28:48.656Z,9.00
2023-04-14T09:31:19.798Z,9.30
2023-04-14T09:33:50.623Z,9.30
2023-04-14T09:36:23.569Z,9.90
2023-04-14T09:38:51.889Z,9.70
2023-04-14T09:41:22.568Z,9.90
2023-04-14T09:43:50.891Z,9.60
2023-04-14T09:46:19.136Z,10.20
2023-04-14T09:48:53.914Z,9.10
2023-04-14T09:51:23.675Z,9.60
2023-04-14T09:53:52.972Z,9.50
2023-04-14T09:56:26.468Z,9.30
2023-04-14T09:59:00.988Z,9.80
2023-04-14T10:01:32.274Z,9.40
2023-04-14T10:04:02.254Z,8.70
2023-04-14T10:06:34.079Z,8.80
2023-04-14T10:09:02.741Z,9.10
2023-04-14T10:11:33.041Z,8.90
2023-04-14T10:14:03.995Z,9.00
2023-04-14T10:16:33.315Z,8.80
2023-04-14T10:19:02.322Z,9.40
2023-04-14T10:21:30.843Z,9.30
2023-04-14T10:23:58.700Z,8.90
2023-04-14T10:26:27.293Z,8.40
2023-04-14T10:28:56.236Z,8.80
2023-04-14T10:31:36.395Z,8.60
2023-04-14T10:34:11.558Z,8.60
2023-04-14T10:36:40.455Z,11.00
2023-04-14T10:39:10.266Z,11.90
2023-04-14T10:41:45.998Z,9.00
2023-04-14T10:44:43.268Z,9.00
2023-04-14T10:47:11.228Z,9.10
2023-04-14T10:49:40.887Z,8.80
2023-04-14T10:52:14.866Z,8.80
2023-04-14T10:54:50.969Z,8.70
2023-04-14T10:57:22.476Z,8.80
2023-04-14T10:59:55.136Z,8.90
2023-04-14T11:04:18.101Z,8.90
2023-04-14T11:06:51.315Z,9.30
2023-04-14T11:09:32.219Z,9.20
2023-04-14T11:12:04.836Z,8.60
2023-04-14T11:14:35.069Z,9.00
2023-04-14T11:17:05.039Z,9.00
2023-04-14T11:19:33.522Z,9.20
2023-04-14T11:22:02.212Z,9.50
2023-04-14T11:24:30.323Z,9.30
2023-04-14T11:26:58.602Z,8.70
2023-04-14T11:29:30.646Z,8.80
2023-04-14T11:32:01.183Z,8.40
2023-04-14T11:34:30.030Z,7.60
2023-04-14T11:36:57.996Z,8.30
2023-04-14T11:39:26.525Z,8.00
2023-04-14T11:41:56.076Z,7.60
2023-04-14T11:44:25.424Z,7.80
2023-04-14T11:46:53.766Z,7.70
2023-04-14T11:49:33.531Z,7.30
2023-04-14T11:52:06.611Z,6.90
2023-04-14T11:54:37.184Z,7.60
2023-04-14T11:57:10.275Z,7.00
2023-04-14T11:59:42.735Z,7.60
2023-04-14T12:02:18.691Z,7.30
2023-04-14T12:04:50.641Z,7.40
2023-04-14T12:07:19.635Z,8.00
2023-04-14T12:09:51.675Z,8.30
2023-04-14T12:12:20.341Z,8.10
2023-04-14T12:14:48.835Z,8.20
2023-04-14T12:17:21.581Z,7.80
2023-04-14T12:19:50.108Z,8.00
2023-04-14T12:22:27.077Z,7.90
2023-04-14T12:24:55.931Z,7.50
2023-04-14T12:27:25.307Z,7.90
2023-04-14T12:29:53.328Z,7.30
2023-04-14T12:32:23.150Z,7.30
2023-04-14T12:34:57.556Z,7.10
2023-04-14T12:37:26.668Z,7.80
2023-04-14T12:39:59.129Z,7.40
2023-04-14T12:42:28.288Z,7.20
2023-04-14T12:45:03.234Z,7.60
2023-04-14T12:47:33.800Z,7.80
2023-04-14T12:50:03.108Z,7.50
2023-04-14T12:52:33.790Z,7.30
2023-04-14T12:55:03.252Z,7.40
2023-04-14T12:57:35.141Z,7.00
2023-04-14T13:00:05.045Z,7.60
2023-04-14T13:02:36.318Z,7.40
2023-04-14T13:05:05.201Z,7.80
2023-04-14T13:07:33.475Z,8.10
2023-04-14T13:10:02.843Z,10.00
2023-04-14T13:12:31.804Z,9.00
2023-04-14T13:15:00.478Z,8.10
2023-04-14T13:17:28.878Z,7.10
2023-04-14T13:19:57.136Z,7.00
2023-04-14T13:22:25.874Z,6.90
2023-04-14T13:24:53.897Z,7.00
2023-04-14T13:27:21.901Z,6.60
2023-04-14T13:29:54.809Z,6.70
2023-04-14T13:32:23.503Z,6.90
2023-04-14T13:34:52.556Z,7.00
2023-04-14T13:37:22.325Z,6.90
2023-04-14T13:39:50.760Z,7.20
2023-04-14T13:42:19.315Z,7.30
2023-04-14T13:44:48.104Z,7.10
2023-04-14T13:47:16.745Z,7.40
2023-04-14T13:49:45.197Z,7.30
2023-04-14T13:52:13.169Z,7.90
2023-04-14T13:54:41.076Z,8.20
2023-04-14T13:57:09.236Z,8.00
2023-04-14T13:59:37.378Z,8.00
2023-04-14T14:02:06.822Z,8.10
2023-04-14T14:04:37.332Z,10.50
2023-04-14T14:07:07.684Z,10.60
2023-04-14T14:09:37.806Z,8.00
2023-04-14T14:12:12.549Z,7.60
2023-04-14T14:14:41.812Z,7.10
2023-04-14T14:17:10.332Z,6.70
2023-04-14T14:19:40.174Z,6.30
2023-04-14T14:22:09.389Z,6.20
2023-04-14T14:24:40.556Z,5.90
2023-04-14T14:27:10.699Z,5.80
2023-04-14T14:29:39.290Z,5.60
2023-04-14T14:32:08.433Z,7.20
2023-04-14T14:34:39.098Z,5.40
2023-04-14T14:37:07.229Z,5.20
2023-04-14T14:39:42.087Z,5.50
2023-04-14T14:42:10.746Z,5.50
2023-04-14T14:44:38.602Z,5.40
2023-04-14T14:47:07.234Z,5.30
2023-04-14T14:49:37.761Z,5.20
2023-04-14T14:54:36.982Z,5.60
2023-04-14T14:57:05.226Z,5.30
2023-04-14T14:59:33.132Z,5.10
2023-04-14T15:02:01.721Z,5.20
2023-04-14T15:04:30.672Z,5.10
2023-04-14T15:06:58.775Z,5.30
2023-04-14T15:09:26.949Z,5.00
2023-04-14T15:11:55.344Z,5.10
2023-04-14T15:14:24.150Z,5.20
2023-04-14T15:16:52.831Z,5.30
2023-04-14T15:19:21.323Z,5.60
2023-04-14T15:21:49.999Z,4.90
2023-04-14T15:24:17.859Z,5.10
2023-04-14T15:26:48.155Z,5.20
2023-04-14T15:29:19.499Z,5.50
2023-04-14T15:31:48.237Z,5.10
2023-04-14T15:34:16.807Z,5.30
2023-04-14T15:36:44.714Z,5.20
2023-04-14T15:39:14.014Z,5.00
2023-04-14T15:41:44.702Z,5.70
2023-04-14T15:44:12.946Z,6.20
2023-04-14T15:46:40.798Z,5.90
2023-04-14T15:49:11.426Z,5.70
2023-04-14T15:51:41.124Z,5.90
2023-04-14T15:54:08.990Z,6.10
2023-04-14T15:56:37.175Z,6.10
2023-04-14T15:59:05.223Z,5.90
2023-04-14T16:01:33.372Z,5.90
2023-04-14T16:04:02.190Z,5.60
2023-04-14T16:06:34.066Z,5.70
2023-04-14T16:09:05.000Z,5.50
2023-04-14T16:11:33.743Z,5.60
2023-04-14T16:14:03.338Z,5.90
2023-04-14T16:16:32.684Z,6.50
2023-04-14T16:19:00.817Z,6.10
2023-04-14T16:21:29.184Z,7.00
2023-04-14T16:23:57.637Z,6.50
2023-04-14T16:26:25.689Z,6.70
2023-04-14T16:29:02.819Z,6.90
2023-04-14T16:31:31.574Z,7.90
2023-04-14T16:34:00.107Z,7.50
2023-04-14T16:36:29.118Z,7.20
2023-04-14T16:38:58.748Z,7.70
2023-04-14T16:41:29.069Z,7.00
2023-04-14T16:43:57.178Z,7.10
2023-04-14T16:46:26.256Z,6.10
2023-04-14T16:48:56.107Z,6.20
2023-04-14T16:51:26.888Z,5.40
2023-04-14T16:53:55.925Z,5.60
2023-04-14T16:56:24.138Z,5.50
2023-04-14T16:58:52.116Z,5.40
2023-04-14T17:01:20.922Z,5.10
2023-04-14T17:03:49.563Z,5.30
2023-04-14T17:06:17.831Z,5.20
2023-04-14T17:08:47.094Z,5.20
2023-04-14T17:11:15.373Z,4.90
2023-04-14T17:13:43.200Z,4.80
2023-04-14T17:16:11.858Z,5.10
2023-04-14T17:18:41.576Z,5.30
2023-04-14T17:21:09.461Z,4.90
2023-04-14T17:23:39.582Z,5.10
2023-04-14T17:26:07.925Z,4.90
2023-04-14T17:28:35.983Z,4.90
2023-04-14T17:31:05.076Z,5.20
2023-04-14T17:33:35.367Z,4.70
2023-04-14T17:36:03.525Z,4.90
2023-04-14T17:38:35.127Z,5.20
2023-04-14T17:41:03.462Z,4.80
2023-04-14T17:43:31.642Z,4.50
2023-04-14T17:46:00.214Z,5.10
2023-04-14T17:48:28.540Z,4.50
2023-04-14T17:50:56.530Z,4.60
2023-04-14T17:53:25.149Z,4.40
2023-04-14T17:55:53.767Z,4.60
2023-04-14T17:58:22.297Z,4.40
2023-04-14T18:00:51.681Z,4.70
2023-04-14T18:03:21.844Z,4.50
2023-04-14T18:05:50.617Z,4.70
2023-04-14T18:08:18.641Z,4.90
2023-04-14T18:10:46.754Z,4.60
2023-04-14T18:13:14.711Z,4.50
2023-04-14T18:15:42.637Z,4.60
2023-04-14T18:18:13.382Z,4.20
2023-04-14T18:20:45.377Z,4.40
2023-04-14T18:23:13.814Z,4.20
2023-04-14T18:28:18.863Z,4.80
2023-04-14T18:30:53.781Z,4.90
2023-04-14T18:33:22.723Z,5.00
2023-04-14T18:35:51.957Z,5.20
2023-04-14T18:38:20.283Z,5.10
2023-04-14T18:40:51.075Z,5.00
2023-04-14T18:43:19.241Z,5.50
2023-04-14T18:45:47.943Z,5.90
2023-04-14T18:48:18.079Z,5.40
2023-04-14T18:50:46.721Z,5.50
2023-04-14T18:53:14.903Z,5.70
2023-04-14T18:55:46.985Z,5.80
2023-04-14T18:58:16.161Z,5.10
2023-04-14T19:00:46.807Z,5.90
2023-04-14T19:03:17.120Z,5.00
2023-04-14T19:05:46.768Z,5.40
2023-04-14T19:08:15.081Z,5.10
2023-04-14T19:10:47.897Z,5.20
2023-04-14T19:13:17.084Z,5.00
2023-04-14T19:15:45.471Z,5.00
2023-04-14T19:18:13.510Z,5.10
2023-04-14T19:20:43.441Z,4.80
2023-04-14T19:23:12.024Z,4.60
2023-04-14T19:25:41.649Z,4.70
2023-04-14T19:28:16.908Z,4.70
2023-04-14T19:30:45.971Z,4.50
2023-04-14T19:33:14.127Z,4.60
2023-04-14T19:35:44.794Z,4.50
2023-04-14T19:38:13.050Z,4.50
2023-04-14T19:40:50.766Z,4.50
2023-04-14T19:43:20.148Z,4.10
2023-04-14T19:45:52.206Z,4.50
2023-04-14T19:48:23.740Z,4.20
2023-04-14T19:50:54.540Z,4.30
2023-04-14T19:53:23.003Z,4.10
2023-04-14T19:55:53.630Z,4.70
2023-04-14T19:58:21.998Z,3.90
2023-04-14T20:00:56.099Z,4.30
2023-04-14T20:03:25.866Z,4.20
2023-04-14T20:05:57.277Z,4.40
2023-04-14T20:08:26.453Z,4.40
2023-04-14T20:10:55.561Z,4.00
2023-04-14T20:13:24.467Z,4.30
2023-04-14T20:15:58.880Z,4.10
2023-04-14T20:18:28.732Z,4.20
2023-04-14T20:20:57.332Z,4.30
2023-04-14T20:23:25.683Z,4.20
2023-04-14T20:25:54.218Z,4.10
2023-04-14T20:28:26.443Z,4.00
2023-04-14T20:30:56.161Z,4.40
2023-04-14T20:33:31.110Z,3.80
2023-04-14T20:36:01.871Z,4.00
2023-04-14T20:38:30.039Z,3.70
2023-04-14T20:41:01.298Z,3.80
2023-04-14T20:43:34.351Z,4.10
2023-04-14T20:46:03.920Z,3.60
2023-04-14T20:48:35.329Z,3.90
2023-04-14T20:51:04.422Z,3.10
2023-04-14T20:53:32.518Z,3.40
2023-04-14T20:56:01.438Z,3.10
2023-04-14T20:58:29.802Z,3.10
2023-04-14T21:00:58.143Z,3.20
2023-04-14T21:03:28.644Z,3.00
2023-04-14T21:05:57.659Z,3.30
2023-04-14T21:08:27.351Z,3.40
2023-04-14T21:11:15.566Z,3.00
2023-04-14T21:15:26.470Z,3.00
2023-04-14T21:16:32.890Z,3.10
2023-04-14T21:19:04.262Z,3.00
2023-04-14T21:21:33.190Z,3.00
2023-04-14T21:24:02.396Z,3.50
2023-04-14T21:26:31.141Z,3.30
2023-04-14T21:29:05.160Z,3.10
2023-04-14T21:31:34.229Z,3.30
2023-04-14T21:34:02.445Z,3.20
2023-04-14T21:36:30.384Z,3.40
2023-04-14T21:38:58.418Z,3.10
2023-04-14T21:41:26.422Z,3.30
2023-04-14T21:43:54.370Z,3.10
2023-04-14T21:46:22.366Z,3.10
2023-04-14T21:48:51.781Z,3.50
2023-04-14T21:51:19.787Z,3.10
2023-04-14T21:53:50.893Z,3.50
2023-04-14T21:56:19.274Z,3.70
2023-04-14T21:58:47.260Z,4.10
2023-04-14T22:01:15.975Z,4.20
2023-04-14T22:03:45.043Z,3.90
2023-04-14T22:06:13.606Z,4.20
2023-04-14T22:08:42.500Z,3.90
2023-04-14T22:11:10.959Z,4.00
2023-04-14T22:13:39.117Z,4.20
2023-04-14T22:16:11.335Z,4.30
2023-04-14T22:18:39.858Z,4.20
2023-04-14T22:21:13.194Z,4.30
2023-04-14T22:23:43.591Z,3.90
2023-04-14T22:26:13.563Z,4.10
2023-04-14T22:28:42.550Z,4.20
2023-04-14T22:31:10.702Z,4.10
2023-04-14T22:33:42.004Z,3.90
2023-04-14T22:36:10.569Z,4.20
2023-04-14T22:38:38.857Z,4.10
2023-04-14T22:41:06.815Z,4.00
2023-04-14T22:43:34.767Z,3.80
2023-04-14T22:46:02.738Z,3.70
2023-04-14T22:48:31.034Z,3.90
2023-04-14T22:50:59.212Z,3.60
2023-04-14T22:53:28.177Z,3.80
2023-04-14T22:55:58.121Z,3.60
2023-04-14T22:58:26.190Z,3.90
2023-04-14T23:00:54.740Z,3.80
2023-04-14T23:03:23.369Z,3.90
2023-04-14T23:05:52.026Z,3.90
2023-04-14T23:08:22.149Z,3.80
2023-04-14T23:10:51.064Z,3.80
2023-04-14T23:13:18.898Z,3.70
2023-04-14T23:15:48.422Z,4.00
2023-04-14T23:18:20.897Z,3.80
2023-04-14T23:22:24.760Z,4.20
2023-04-14T23:25:02.385Z,3.80
2023-04-14T23:27:31.487Z,3.90
2023-04-14T23:29:59.591Z,4.10
2023-04-14T23:32:27.817Z,4.00
2023-04-14T23:35:00.838Z,3.80
2023-04-14T23:37:29.371Z,4.00
2023-04-14T23:39:57.581Z,4.10
2023-04-14T23:42:25.618Z,4.00
2023-04-14T23:44:54.475Z,4.10
2023-04-14T23:47:22.367Z,4.00
2023-04-14T23:49:55.418Z,4.30
2023-04-14T23:52:23.740Z,3.70
2023-04-14T23:54:52.139Z,4.20
2023-04-14T23:57:22.522Z,4.10
2023-04-14T23:59:50.784Z,4.20
